createdAt,value
2022-11-25T00:01:18.619Z,2.83
2022-11-25T00:03:47.295Z,3.28
2022-11-25T00:06:24.146Z,2.72
2022-11-25T00:09:02.481Z,2.78
2022-11-25T00:11:30.018Z,2.55
2022-11-25T00:13:57.890Z,2.75
2022-11-25T00:16:26.821Z,2.75
2022-11-25T00:18:55.692Z,2.35
2022-11-25T00:21:25.231Z,2.47
2022-11-25T00:23:59.705Z,2.72
2022-11-25T00:26:28.314Z,2.15
2022-11-25T00:28:57.780Z,2.60
2022-11-25T00:31:27.445Z,2.78
2022-11-25T00:33:55.202Z,3.15
2022-11-25T00:36:23.637Z,2.67
2022-11-25T00:38:58.396Z,2.47
2022-11-25T00:41:45.090Z,2.60
2022-11-25T00:44:31.999Z,2.83
2022-11-25T00:46:58.935Z,2.47
2022-11-25T00:49:25.821Z,2.92
2022-11-25T00:51:52.630Z,2.70
2022-11-25T00:54:19.855Z,2.90
2022-11-25T00:56:46.698Z,2.28
2022-11-25T00:59:13.427Z,3.08
2022-11-25T01:01:40.211Z,2.47
2022-11-25T01:04:07.679Z,3.17
2022-11-25T01:06:35.782Z,2.72
2022-11-25T01:09:03.080Z,3.10
2022-11-25T01:11:29.842Z,2.50
2022-11-25T01:14:00.885Z,2.80
2022-11-25T01:16:28.399Z,2.83
2022-11-25T01:18:55.113Z,2.78
2022-11-25T01:21:30.833Z,3.28
2022-11-25T01:24:00.764Z,2.85
2022-11-25T01:26:28.833Z,3.03
2022-11-25T01:29:01.624Z,3.00
2022-11-25T01:31:34.627Z,2.38
2022-11-25T01:34:13.389Z,2.90
2022-11-25T01:36:40.112Z,2.92
2022-11-25T01:39:07.013Z,2.33
2022-11-25T01:41:35.599Z,2.20
2022-11-25T01:44:09.046Z,1.85
2022-11-25T01:46:49.316Z,2.20
2022-11-25T01:49:28.096Z,2.10
2022-11-25T01:52:06.465Z,1.70
2022-11-25T01:54:38.395Z,2.17
2022-11-25T01:57:10.338Z,1.95
2022-11-25T01:59:42.201Z,1.75
2022-11-25T02:02:09.847Z,1.70
2022-11-25T02:04:39.495Z,1.98
2022-11-25T02:07:15.390Z,2.25
2022-11-25T02:09:43.889Z,2.13
2022-11-25T02:12:11.175Z,1.75
2022-11-25T02:14:38.417Z,1.83
2022-11-25T02:17:05.342Z,1.75
2022-11-25T02:19:46.287Z,1.60
2022-11-25T02:22:24.376Z,1.55
2022-11-25T02:24:58.158Z,1.80
2022-11-25T02:27:25.046Z,1.70
2022-11-25T02:29:52.406Z,1.60
2022-11-25T02:32:23.419Z,2.15
2022-11-25T02:34:50.488Z,1.73
2022-11-25T02:37:20.529Z,1.90
2022-11-25T02:39:48.485Z,1.85
2022-11-25T02:42:16.418Z,1.70
2022-11-25T02:44:43.060Z,1.83
2022-11-25T02:47:09.659Z,1.60
2022-11-25T02:49:36.332Z,1.70
2022-11-25T02:52:03.093Z,2.00
2022-11-25T02:54:29.836Z,1.67
2022-11-25T02:56:56.657Z,1.60
2022-11-25T02:59:23.389Z,1.95
2022-11-25T03:01:50.240Z,2.13
2022-11-25T03:04:16.849Z,2.30
2022-11-25T03:06:43.792Z,1.90
2022-11-25T03:09:10.966Z,2.47
2022-11-25T03:11:56.125Z,2.20
2022-11-25T03:14:22.858Z,2.20
2022-11-25T03:16:49.712Z,2.60
2022-11-25T03:19:16.490Z,2.47
2022-11-25T03:21:43.191Z,2.80
2022-11-25T03:24:09.981Z,2.50
2022-11-25T03:26:36.567Z,2.30
2022-11-25T03:29:03.403Z,3.05
2022-11-25T03:31:30.311Z,3.00
2022-11-25T03:33:57.108Z,3.17
2022-11-25T03:36:23.747Z,2.40
2022-11-25T03:38:50.384Z,3.03
2022-11-25T03:41:17.343Z,2.45
2022-11-25T03:43:44.005Z,3.20
2022-11-25T03:46:10.817Z,3.00
2022-11-25T03:48:37.539Z,2.45
2022-11-25T03:51:04.302Z,3.03
2022-11-25T03:53:30.945Z,2.15
2022-11-25T03:55:57.590Z,2.55
2022-11-25T03:58:24.422Z,2.28
2022-11-25T04:00:51.070Z,2.40
2022-11-25T04:03:17.893Z,2.90
2022-11-25T04:05:44.719Z,2.55
2022-11-25T04:08:11.636Z,2.60
2022-11-25T04:10:38.397Z,3.05
2022-11-25T04:13:05.165Z,2.90
2022-11-25T04:15:31.955Z,2.17
2022-11-25T04:17:58.788Z,2.15
2022-11-25T04:20:25.635Z,2.30
2022-11-25T04:22:52.466Z,1.52
2022-11-25T04:25:19.210Z,2.08
2022-11-25T04:27:46.092Z,1.73
2022-11-25T04:30:14.559Z,2.08
2022-11-25T04:32:41.318Z,1.90
2022-11-25T04:35:08.294Z,1.80
2022-11-25T04:37:35.037Z,1.73
2022-11-25T04:40:02.279Z,2.17
2022-11-25T04:42:31.634Z,1.83
2022-11-25T04:45:21.513Z,2.00
2022-11-25T04:47:46.243Z,2.08
2022-11-25T04:50:16.501Z,1.73
2022-11-25T04:52:43.284Z,2.00
2022-11-25T04:55:10.460Z,1.77
2022-11-25T04:57:37.824Z,1.70
2022-11-25T05:00:05.345Z,1.70
2022-11-25T05:02:32.169Z,1.42
2022-11-25T05:04:58.961Z,1.45
2022-11-25T05:07:27.539Z,1.48
2022-11-25T05:09:54.846Z,1.58
2022-11-25T05:12:25.114Z,1.13
2022-11-25T05:14:51.799Z,1.20
2022-11-25T05:17:21.273Z,0.90
2022-11-25T05:19:48.674Z,1.50
2022-11-25T05:22:17.291Z,1.00
2022-11-25T05:24:44.522Z,0.90
2022-11-25T05:27:12.271Z,1.52
2022-11-25T05:29:38.965Z,1.00
2022-11-25T05:32:06.613Z,1.63
2022-11-25T05:34:33.495Z,1.30
2022-11-25T05:37:00.509Z,1.48
2022-11-25T05:39:27.416Z,1.23
2022-11-25T05:41:53.981Z,1.65
2022-11-25T05:44:23.047Z,1.35
2022-11-25T05:46:50.510Z,1.27
2022-11-25T05:49:18.101Z,1.60
2022-11-25T05:51:47.067Z,1.30
2022-11-25T05:54:14.187Z,1.40
2022-11-25T05:56:40.978Z,1.67
2022-11-25T05:59:08.028Z,1.63
2022-11-25T06:01:34.952Z,1.48
2022-11-25T06:04:03.757Z,2.85
2022-11-25T06:06:32.227Z,1.75
2022-11-25T06:08:59.461Z,1.70
2022-11-25T06:11:26.429Z,1.45
2022-11-25T06:13:53.412Z,1.45
2022-11-25T06:16:22.627Z,1.95
2022-11-25T06:18:50.043Z,2.08
2022-11-25T06:21:17.586Z,1.50
2022-11-25T06:23:45.689Z,1.95
2022-11-25T06:26:18.762Z,1.98
2022-11-25T06:28:46.174Z,2.47
2022-11-25T06:31:16.384Z,1.70
2022-11-25T06:33:47.035Z,1.73
2022-11-25T06:36:17.224Z,1.80
2022-11-25T06:38:49.113Z,1.85
2022-11-25T06:41:16.356Z,2.97
2022-11-25T06:43:43.265Z,1.95
2022-11-25T06:46:13.915Z,2.45
2022-11-25T06:48:40.739Z,2.22
2022-11-25T06:51:10.024Z,1.65
2022-11-25T06:53:37.125Z,1.58
2022-11-25T06:56:09.418Z,1.83
2022-11-25T07:01:16.562Z,2.05
2022-11-25T07:03:44.276Z,1.90
2022-11-25T07:06:15.723Z,1.75
2022-11-25T07:08:43.973Z,2.63
2022-11-25T07:11:15.993Z,3.00
2022-11-25T07:13:42.608Z,2.63
2022-11-25T07:16:11.427Z,3.08
2022-11-25T07:18:39.706Z,2.40
2022-11-25T07:21:10.772Z,1.77
2022-11-25T07:23:38.425Z,2.42
2022-11-25T07:26:12.115Z,2.42
2022-11-25T07:28:39.590Z,2.58
2022-11-25T07:31:32.844Z,2.65
2022-11-25T07:34:17.866Z,2.55
2022-11-25T07:36:45.364Z,3.40
2022-11-25T07:39:18.171Z,2.92
2022-11-25T07:41:45.341Z,3.45
2022-11-25T07:44:14.755Z,3.13
2022-11-25T07:46:46.233Z,2.10
2022-11-25T07:49:16.312Z,2.65
2022-11-25T07:51:48.917Z,2.50
2022-11-25T07:54:16.161Z,2.30
2022-11-25T07:56:44.728Z,2.40
2022-11-25T07:59:17.092Z,2.28
2022-11-25T08:01:44.616Z,2.90
2022-11-25T08:04:19.473Z,2.38
2022-11-25T08:06:49.079Z,2.15
2022-11-25T08:09:19.440Z,2.30
2022-11-25T08:11:46.908Z,2.80
2022-11-25T08:14:14.152Z,2.78
2022-11-25T08:16:41.049Z,2.78
2022-11-25T08:19:11.735Z,3.25
2022-11-25T08:21:38.900Z,2.58
2022-11-25T08:24:08.157Z,3.78
2022-11-25T08:26:37.705Z,2.60
2022-11-25T08:29:07.898Z,2.92
2022-11-25T08:31:38.117Z,3.80
2022-11-25T08:34:06.761Z,2.40
2022-11-25T08:36:35.466Z,2.88
2022-11-25T08:39:22.577Z,3.17
2022-11-25T08:41:52.316Z,2.70
2022-11-25T08:44:19.073Z,2.33
2022-11-25T08:46:45.763Z,2.78
2022-11-25T08:49:13.140Z,2.83
2022-11-25T08:51:40.674Z,2.45
2022-11-25T08:54:08.521Z,2.58
2022-11-25T08:56:36.254Z,2.60
2022-11-25T08:59:03.827Z,2.00
2022-11-25T09:01:30.592Z,2.70
2022-11-25T09:03:58.377Z,2.42
2022-11-25T09:06:27.038Z,2.60
2022-11-25T09:08:59.170Z,2.13
2022-11-25T09:11:26.603Z,2.83
2022-11-25T09:13:53.671Z,2.40
2022-11-25T09:16:21.512Z,3.20
2022-11-25T09:18:53.961Z,2.55
2022-11-25T09:21:22.659Z,2.30
2022-11-25T09:23:51.344Z,2.50
2022-11-25T09:26:24.294Z,2.25
2022-11-25T09:28:51.052Z,2.60
2022-11-25T09:31:18.159Z,2.22
2022-11-25T09:33:45.172Z,2.63
2022-11-25T09:36:13.714Z,2.72
2022-11-25T09:38:43.242Z,3.00
2022-11-25T09:41:47.028Z,2.58
2022-11-25T09:45:14.799Z,2.58
2022-11-25T09:48:15.632Z,2.90
2022-11-25T09:50:57.435Z,2.40
2022-11-25T09:53:53.173Z,2.67
2022-11-25T09:56:47.538Z,3.00
2022-11-25T09:59:22.748Z,2.25
2022-11-25T10:01:55.867Z,2.75
2022-11-25T10:04:48.015Z,2.47
2022-11-25T10:07:53.442Z,2.03
2022-11-25T10:10:25.955Z,2.25
2022-11-25T10:12:57.140Z,2.47
2022-11-25T10:15:27.929Z,1.95
2022-11-25T10:18:03.390Z,2.25
2022-11-25T10:20:33.632Z,1.67
2022-11-25T10:23:09.867Z,2.17
2022-11-25T10:25:45.829Z,1.50
2022-11-25T10:28:15.183Z,1.85
2022-11-25T10:30:54.646Z,1.67
2022-11-25T10:33:25.867Z,1.80
2022-11-25T10:36:08.221Z,2.05
2022-11-25T10:38:55.625Z,1.67
2022-11-25T10:41:28.053Z,1.27
2022-11-25T10:47:13.414Z,1.80
2022-11-25T10:49:43.757Z,1.85
2022-11-25T10:52:13.480Z,2.38
2022-11-25T10:54:41.118Z,1.73
2022-11-25T10:57:20.966Z,2.08
2022-11-25T10:59:59.109Z,1.98
2022-11-25T11:02:31.911Z,1.90
2022-11-25T11:05:10.683Z,2.20
2022-11-25T11:07:40.207Z,2.45
2022-11-25T11:10:24.174Z,2.17
2022-11-25T11:13:02.950Z,1.85
2022-11-25T11:15:32.768Z,2.35
2022-11-25T11:18:21.184Z,2.53
2022-11-25T11:20:51.145Z,2.38
2022-11-25T11:23:18.187Z,2.65
2022-11-25T11:26:02.695Z,2.70
2022-11-25T11:28:37.323Z,2.60
2022-11-25T11:31:15.052Z,3.17
2022-11-25T11:33:48.317Z,2.42
2022-11-25T11:36:39.556Z,2.72
2022-11-25T11:39:35.343Z,2.10
2022-11-25T11:42:10.186Z,1.50
2022-11-25T11:44:59.840Z,2.47
2022-11-25T11:47:44.818Z,2.35
2022-11-25T11:50:23.475Z,2.30
2022-11-25T11:53:10.860Z,2.25
2022-11-25T11:56:18.834Z,2.60
2022-11-25T11:58:45.566Z,2.10
2022-11-25T12:01:30.671Z,2.63
2022-11-25T12:04:03.567Z,2.55
2022-11-25T12:06:34.487Z,2.40
2022-11-25T12:09:08.389Z,3.40
2022-11-25T12:11:48.484Z,3.15
2022-11-25T12:14:36.769Z,2.65
2022-11-25T12:17:12.591Z,2.13
2022-11-25T12:20:05.986Z,2.10
2022-11-25T12:22:38.305Z,2.38
2022-11-25T12:28:01.998Z,2.75
2022-11-25T12:30:45.046Z,3.20
2022-11-25T12:33:27.417Z,2.50
2022-11-25T12:36:12.031Z,2.03
2022-11-25T12:39:02.573Z,2.70
2022-11-25T12:41:53.533Z,2.55
2022-11-25T12:44:38.546Z,2.63
2022-11-25T12:47:11.721Z,2.25
2022-11-25T12:49:51.179Z,2.70
2022-11-25T12:52:26.642Z,2.97
2022-11-25T12:55:18.412Z,2.88
2022-11-25T12:57:57.200Z,3.30
2022-11-25T13:00:46.608Z,2.80
2022-11-25T13:03:28.265Z,2.97
2022-11-25T13:06:07.998Z,2.67
2022-11-25T13:08:52.854Z,3.28
2022-11-25T13:11:22.637Z,3.50
2022-11-25T13:14:01.142Z,3.88
2022-11-25T13:16:29.175Z,3.38
2022-11-25T13:18:56.377Z,2.90
2022-11-25T13:21:25.077Z,3.25
2022-11-25T13:23:52.871Z,3.22
2022-11-25T13:26:28.992Z,3.85
2022-11-25T13:28:56.648Z,4.10
2022-11-25T13:31:30.201Z,3.50
2022-11-25T13:34:23.178Z,3.30
2022-11-25T13:36:52.508Z,3.05
2022-11-25T13:39:36.321Z,3.30
2022-11-25T13:42:25.927Z,3.20
2022-11-25T13:44:58.758Z,3.97
2022-11-25T13:47:28.594Z,4.15
2022-11-25T13:50:02.300Z,3.85
2022-11-25T13:52:31.823Z,4.60
2022-11-25T13:55:00.937Z,4.13
2022-11-25T13:57:30.381Z,4.05
2022-11-25T14:00:19.501Z,3.95
2022-11-25T14:02:49.572Z,4.45
2022-11-25T14:05:35.175Z,4.95
2022-11-25T14:08:50.566Z,5.05
2022-11-25T14:11:45.156Z,5.32
2022-11-25T14:14:33.898Z,4.45
2022-11-25T14:17:23.767Z,4.68
2022-11-25T14:20:17.711Z,4.65
2022-11-25T14:23:05.618Z,4.57
2022-11-25T14:25:53.551Z,4.53
2022-11-25T14:28:56.074Z,4.70
2022-11-25T14:31:32.779Z,4.53
2022-11-25T14:34:05.328Z,5.07
2022-11-25T14:36:38.505Z,5.32
2022-11-25T14:39:13.878Z,5.03
2022-11-25T14:42:02.781Z,5.38
2022-11-25T14:44:42.424Z,4.63
2022-11-25T14:47:09.118Z,4.90
2022-11-25T14:49:51.963Z,6.05
2022-11-25T14:52:31.255Z,6.13
2022-11-25T14:55:00.365Z,5.60
2022-11-25T14:57:32.746Z,4.93
2022-11-25T15:00:09.925Z,5.63
2022-11-25T15:02:41.566Z,4.93
2022-11-25T15:05:08.259Z,5.07
2022-11-25T15:07:35.058Z,5.03
2022-11-25T15:10:02.036Z,4.90
2022-11-25T15:12:33.127Z,5.28
2022-11-25T15:15:00.483Z,6.70
2022-11-25T15:17:32.507Z,9.13
2022-11-25T15:20:04.257Z,8.15
2022-11-25T15:22:31.003Z,8.05
2022-11-25T15:25:08.768Z,9.23
2022-11-25T15:27:45.112Z,7.13
2022-11-25T15:30:24.931Z,7.10
2022-11-25T15:32:52.642Z,6.85
2022-11-25T15:35:22.782Z,5.88
2022-11-25T15:37:49.857Z,5.80
2022-11-25T15:40:36.936Z,5.05
2022-11-25T15:43:07.041Z,4.90
2022-11-25T15:45:45.828Z,3.95
2022-11-25T15:48:38.835Z,3.58
2022-11-25T15:51:19.428Z,3.40
2022-11-25T15:53:47.199Z,4.03
2022-11-25T15:56:21.888Z,4.03
2022-11-25T15:58:48.635Z,4.05
2022-11-25T16:01:15.276Z,4.22
2022-11-25T16:03:42.098Z,3.58
2022-11-25T16:06:26.932Z,3.20
2022-11-25T16:08:58.027Z,3.30
2022-11-25T16:11:29.267Z,3.72
2022-11-25T16:14:16.206Z,4.03
2022-11-25T16:16:42.956Z,3.80
2022-11-25T16:19:09.509Z,3.17
2022-11-25T16:21:35.997Z,3.00
2022-11-25T16:24:05.521Z,3.47
2022-11-25T16:26:49.435Z,3.20
2022-11-25T16:29:18.903Z,2.47
2022-11-25T16:31:45.911Z,2.78
2022-11-25T16:34:19.448Z,2.65
2022-11-25T16:36:46.092Z,2.65
2022-11-25T16:39:13.429Z,2.65
2022-11-25T16:41:41.786Z,2.70
2022-11-25T16:44:27.867Z,2.67
2022-11-25T16:46:54.867Z,2.50
2022-11-25T16:49:22.686Z,2.65
2022-11-25T16:51:51.072Z,2.33
2022-11-25T16:54:22.164Z,2.72
2022-11-25T16:56:52.903Z,2.38
2022-11-25T16:59:28.917Z,2.47
2022-11-25T17:01:55.940Z,2.35
2022-11-25T17:04:22.787Z,3.10
2022-11-25T17:07:16.495Z,3.30
2022-11-25T17:09:36.726Z,2.47
2022-11-25T17:12:05.892Z,3.20
2022-11-25T17:14:35.845Z,2.95
2022-11-25T17:17:04.583Z,3.22
2022-11-25T17:19:31.830Z,2.53
2022-11-25T17:21:58.601Z,2.60
2022-11-25T17:24:25.981Z,2.60
2022-11-25T17:26:59.271Z,2.42
2022-11-25T17:29:35.985Z,2.38
2022-11-25T17:32:04.389Z,2.92
2022-11-25T17:34:34.918Z,3.55
2022-11-25T17:37:12.343Z,3.47
2022-11-25T17:39:39.170Z,2.67
2022-11-25T17:42:06.104Z,2.90
2022-11-25T17:44:33.511Z,2.97
2022-11-25T17:47:00.260Z,3.22
2022-11-25T17:49:26.950Z,2.85
2022-11-25T17:51:54.152Z,2.92
2022-11-25T17:54:20.887Z,2.78
2022-11-25T17:56:52.258Z,2.60
2022-11-25T17:59:26.575Z,2.65
2022-11-25T18:01:53.652Z,3.03
2022-11-25T18:04:23.774Z,2.67
2022-11-25T18:06:50.998Z,2.97
2022-11-25T18:09:18.360Z,3.05
2022-11-25T18:11:49.836Z,2.85
2022-11-25T18:14:27.921Z,2.83
2022-11-25T18:16:55.292Z,2.97
2022-11-25T18:19:22.516Z,2.40
2022-11-25T18:21:49.659Z,3.25
2022-11-25T18:24:16.432Z,3.42
2022-11-25T18:26:47.278Z,3.20
2022-11-25T18:29:27.451Z,3.45
2022-11-25T18:31:59.891Z,3.75
2022-11-25T18:34:26.923Z,3.47
2022-11-25T18:36:54.222Z,3.78
2022-11-25T18:39:23.953Z,3.72
2022-11-25T18:41:54.042Z,3.13
2022-11-25T18:44:29.575Z,3.40
2022-11-25T18:46:56.578Z,4.28
2022-11-25T18:49:24.172Z,4.15
2022-11-25T18:51:51.015Z,5.05
2022-11-25T18:54:17.626Z,5.47
2022-11-25T18:56:46.168Z,5.88
2022-11-25T18:59:19.685Z,5.47
2022-11-25T19:01:49.813Z,4.85
2022-11-25T19:04:17.086Z,5.60
2022-11-25T19:06:44.561Z,4.20
2022-11-25T19:09:12.125Z,4.75
2022-11-25T19:11:51.482Z,5.57
2022-11-25T19:14:33.664Z,4.13
2022-11-25T19:17:08.530Z,4.38
2022-11-25T19:19:38.006Z,3.17
2022-11-25T19:22:11.660Z,3.78
2022-11-25T19:24:38.879Z,3.50
2022-11-25T19:27:05.871Z,3.72
2022-11-25T19:29:41.975Z,3.65
2022-11-25T19:32:19.703Z,3.80
2022-11-25T19:34:54.065Z,3.90
2022-11-25T19:37:23.154Z,3.63
2022-11-25T19:39:51.514Z,3.80
2022-11-25T19:42:18.421Z,4.60
2022-11-25T19:44:47.045Z,5.45
2022-11-25T19:47:23.436Z,4.78
2022-11-25T19:49:53.362Z,5.10
2022-11-25T19:52:22.680Z,4.63
2022-11-25T19:54:49.660Z,4.20
2022-11-25T19:57:21.407Z,4.50
2022-11-25T19:59:48.869Z,4.60
2022-11-25T20:02:20.592Z,4.20
2022-11-25T20:04:50.095Z,4.65
2022-11-25T20:07:19.718Z,5.15
2022-11-25T20:09:47.691Z,4.53
2022-11-25T20:12:26.982Z,4.38
2022-11-25T20:14:53.876Z,4.35
2022-11-25T20:17:31.742Z,4.85
2022-11-25T20:20:03.267Z,5.18
2022-11-25T20:22:35.464Z,4.05
2022-11-25T20:27:30.137Z,3.90
2022-11-25T20:29:57.191Z,2.97
2022-11-25T20:32:34.127Z,3.83
2022-11-25T20:35:01.636Z,3.53
2022-11-25T20:37:29.825Z,3.40
2022-11-25T20:40:00.339Z,4.15
2022-11-25T20:42:27.575Z,3.55
2022-11-25T20:44:57.466Z,3.90
2022-11-25T20:47:27.279Z,3.42
2022-11-25T20:49:54.130Z,3.80
2022-11-25T20:52:28.298Z,4.43
2022-11-25T20:54:55.051Z,4.03
2022-11-25T20:57:22.062Z,4.47
2022-11-25T20:59:48.984Z,3.88
2022-11-25T21:02:15.640Z,4.70
2022-11-25T21:04:43.671Z,4.75
2022-11-25T21:07:15.558Z,4.68
2022-11-25T21:09:42.352Z,4.50
2022-11-25T21:12:18.780Z,4.82
2022-11-25T21:14:46.679Z,4.07
2022-11-25T21:17:13.799Z,3.95
2022-11-25T21:19:40.824Z,4.25
2022-11-25T21:22:10.425Z,4.47
2022-11-25T21:24:40.655Z,4.35
2022-11-25T21:27:15.026Z,5.70
2022-11-25T21:29:44.099Z,4.47
2022-11-25T21:32:25.904Z,4.25
2022-11-25T21:34:53.486Z,4.50
2022-11-25T21:37:29.824Z,4.45
2022-11-25T21:39:58.541Z,4.20
2022-11-25T21:42:26.208Z,4.78
2022-11-25T21:44:56.613Z,5.10
2022-11-25T21:47:26.891Z,5.22
2022-11-25T21:49:53.839Z,4.93
2022-11-25T21:52:21.155Z,4.95
2022-11-25T21:54:47.924Z,4.78
2022-11-25T21:57:21.441Z,5.20
2022-11-25T21:59:48.927Z,5.38
2022-11-25T22:02:21.952Z,6.40
2022-11-25T22:04:49.324Z,5.55
2022-11-25T22:07:16.144Z,8.00
2022-11-25T22:09:42.971Z,7.28
2022-11-25T22:12:30.427Z,7.10
2022-11-25T22:15:00.219Z,7.15
2022-11-25T22:17:28.224Z,8.02
2022-11-25T22:19:57.119Z,6.55
2022-11-25T22:22:25.427Z,6.25
2022-11-25T22:24:52.183Z,5.65
2022-11-25T22:27:23.717Z,5.80
2022-11-25T22:29:51.566Z,6.15
2022-11-25T22:32:22.622Z,5.50
2022-11-25T22:34:49.636Z,4.90
2022-11-25T22:37:18.964Z,5.60
2022-11-25T22:39:46.320Z,4.60
2022-11-25T22:42:22.845Z,5.10
2022-11-25T22:44:50.406Z,4.78
2022-11-25T22:47:36.558Z,5.45
2022-11-25T22:50:07.481Z,4.93
2022-11-25T22:52:35.821Z,6.00
2022-11-25T22:55:22.714Z,5.45
2022-11-25T22:57:51.521Z,5.00
2022-11-25T23:00:26.312Z,4.40
2022-11-25T23:02:56.408Z,4.32
2022-11-25T23:05:34.905Z,4.53
2022-11-25T23:08:09.913Z,4.18
2022-11-25T23:10:38.666Z,5.25
2022-11-25T23:13:05.413Z,5.30
2022-11-25T23:15:32.150Z,6.32
2022-11-25T23:18:01.815Z,6.68
2022-11-25T23:20:37.577Z,7.10
2022-11-25T23:23:19.080Z,6.22
2022-11-25T23:25:46.496Z,7.28
2022-11-25T23:28:13.703Z,5.63
2022-11-25T23:30:54.106Z,5.72
2022-11-25T23:33:39.115Z,5.10
2022-11-25T23:36:19.214Z,5.57
2022-11-25T23:39:06.192Z,5.30
2022-11-25T23:41:34.357Z,5.15
2022-11-25T23:44:33.453Z,4.40
2022-11-25T23:47:06.238Z,4.38
2022-11-25T23:49:40.246Z,3.90
2022-11-25T23:52:08.838Z,4.22
2022-11-25T23:54:41.525Z,4.45
2022-11-25T23:57:30.367Z,4.65
2022-11-25T23:59:57.080Z,4.75
